createdAt,value
2022-10-19T00:01:15.875Z,101858.72
2022-10-19T00:06:28.409Z,101857.44
2022-10-19T00:08:59.026Z,101846.75
2022-10-19T00:11:27.141Z,101848.59
2022-10-19T00:13:55.962Z,101841.59
2022-10-19T00:16:25.174Z,101843.63
2022-10-19T00:18:52.620Z,101847.31
2022-10-19T00:21:20.445Z,101840.13
2022-10-19T00:23:48.801Z,101841.97
2022-10-19T00:26:16.318Z,101842.78
2022-10-19T00:28:45.386Z,101821.97
2022-10-19T00:31:15.929Z,101816.28
2022-10-19T00:33:46.987Z,101815.63
2022-10-19T00:36:20.623Z,101819.59
2022-10-19T00:38:48.689Z,101818.94
2022-10-19T00:41:17.613Z,101815.63
2022-10-19T00:44:06.630Z,101807.38
2022-10-19T00:46:42.156Z,101810.41
2022-10-19T00:49:11.712Z,101797.41
2022-10-19T00:51:43.315Z,101792.47
2022-10-19T00:54:11.869Z,101783.34
2022-10-19T00:56:43.196Z,101786.84
2022-10-19T00:59:12.578Z,101784.19
2022-10-19T01:01:40.091Z,101773.88
2022-10-19T01:04:07.531Z,101773.44
2022-10-19T01:06:36.115Z,101769.47
2022-10-19T01:09:03.666Z,101773.97
2022-10-19T01:11:47.199Z,101781.56
2022-10-19T01:14:23.987Z,101762.78
2022-10-19T01:17:13.094Z,101770.78
2022-10-19T01:20:02.036Z,101772.78
2022-10-19T01:22:33.099Z,101778.13
2022-10-19T01:25:46.212Z,101774.00
2022-10-19T01:28:20.954Z,101770.69
2022-10-19T01:31:21.811Z,101761.56
2022-10-19T01:34:18.352Z,101759.47
2022-10-19T01:36:53.896Z,101771.63
2022-10-19T01:39:35.974Z,101770.97
2022-10-19T01:42:15.555Z,101758.19
2022-10-19T01:45:01.173Z,101763.03
2022-10-19T01:47:54.241Z,101764.69
2022-10-19T01:50:35.984Z,101763.03
2022-10-19T01:53:10.009Z,101760.13
2022-10-19T01:55:42.968Z,101765.63
2022-10-19T01:58:13.933Z,101756.97
2022-10-19T02:00:45.525Z,101755.88
2022-10-19T02:03:14.184Z,101750.91
2022-10-19T02:05:45.033Z,101746.97
2022-10-19T02:08:23.021Z,101747.16
2022-10-19T02:10:51.050Z,101740.69
2022-10-19T02:13:21.191Z,101747.03
2022-10-19T02:15:52.484Z,101742.94
2022-10-19T02:18:25.865Z,101738.13
2022-10-19T02:20:53.515Z,101739.97
2022-10-19T02:23:24.428Z,101732.16
2022-10-19T02:25:52.085Z,101728.22
2022-10-19T02:28:19.657Z,101722.22
2022-10-19T02:30:47.526Z,101727.56
2022-10-19T02:33:15.405Z,101726.06
2022-10-19T02:35:43.305Z,101714.94
2022-10-19T02:38:16.159Z,101719.25
2022-10-19T02:40:54.554Z,101706.50
2022-10-19T02:43:24.855Z,101713.28
2022-10-19T02:46:01.761Z,101711.81
2022-10-19T02:48:33.227Z,101714.28
2022-10-19T02:51:01.561Z,101702.34
2022-10-19T02:53:29.301Z,101701.69
2022-10-19T02:55:57.889Z,101700.22
2022-10-19T02:58:25.353Z,101699.78
2022-10-19T03:00:54.234Z,101691.97
2022-10-19T03:03:22.136Z,101692.31
2022-10-19T03:05:50.280Z,101688.16
2022-10-19T03:08:19.012Z,101688.16
2022-10-19T03:10:46.467Z,101679.09
2022-10-19T03:13:13.898Z,101679.72
2022-10-19T03:15:41.995Z,101670.25
2022-10-19T03:18:09.483Z,101667.59
2022-10-19T03:20:36.886Z,101677.06
2022-10-19T03:23:05.629Z,101668.25
2022-10-19T03:25:33.072Z,101670.91
2022-10-19T03:28:00.771Z,101673.56
2022-10-19T03:30:28.314Z,101670.09
2022-10-19T03:32:55.819Z,101667.59
2022-10-19T03:35:23.274Z,101664.94
2022-10-19T03:37:50.704Z,101658.78
2022-10-19T03:40:18.254Z,101662.28
2022-10-19T03:42:46.831Z,101657.44
2022-10-19T03:45:14.344Z,101657.88
2022-10-19T03:47:41.928Z,101647.50
2022-10-19T03:50:11.642Z,101647.34
2022-10-19T03:52:39.107Z,101663.03
2022-10-19T03:55:07.140Z,101662.13
2022-10-19T03:57:34.841Z,101652.03
2022-10-19T04:00:02.597Z,101644.22
2022-10-19T04:02:39.589Z,101636.41
2022-10-19T04:05:07.834Z,101642.13
2022-10-19T04:07:35.509Z,101630.88
2022-10-19T04:10:03.563Z,101614.22
2022-10-19T04:12:31.206Z,101625.94
2022-10-19T04:14:58.608Z,101621.72
2022-10-19T04:17:26.365Z,101620.78
2022-10-19T04:19:53.783Z,101628.69
2022-10-19T04:22:21.315Z,101630.06
2022-10-19T04:24:48.732Z,101623.13
2022-10-19T04:27:16.691Z,101621.00
2022-10-19T04:29:44.085Z,101614.78
2022-10-19T04:32:12.825Z,101607.03
2022-10-19T04:34:40.903Z,101607.78
2022-10-19T04:37:08.517Z,101613.44
2022-10-19T04:39:39.736Z,101605.97
2022-10-19T04:42:07.303Z,101605.56
2022-10-19T04:44:35.731Z,101611.53
2022-10-19T04:47:04.870Z,101610.44
2022-10-19T04:49:33.347Z,101597.59
2022-10-19T04:52:01.306Z,101604.78
2022-10-19T04:54:29.863Z,101610.28
2022-10-19T04:56:57.706Z,101608.56
2022-10-19T04:59:25.178Z,101602.34
2022-10-19T05:01:52.662Z,101590.38
2022-10-19T05:04:20.249Z,101595.34
2022-10-19T05:06:48.191Z,101601.69
2022-10-19T05:09:16.149Z,101594.50
2022-10-19T05:11:43.854Z,101604.81
2022-10-19T05:14:11.741Z,101590.63
2022-10-19T05:16:39.361Z,101592.34
2022-10-19T05:19:06.802Z,101589.69
2022-10-19T05:21:35.245Z,101590.34
2022-10-19T05:24:02.807Z,101584.59
2022-10-19T05:26:32.828Z,101592.69
2022-10-19T05:29:03.017Z,101576.50
2022-10-19T05:31:34.927Z,101576.69
2022-10-19T05:34:04.349Z,101571.69
2022-10-19T05:36:37.366Z,101566.13
2022-10-19T05:42:39.388Z,101563.72
2022-10-19T05:48:36.879Z,101560.03
2022-10-19T05:54:04.629Z,101549.09
2022-10-19T05:57:05.007Z,101560.47
2022-10-19T06:49:07.923Z,101502.59
2022-10-19T06:51:38.262Z,101505.34
2022-10-19T06:54:08.392Z,101492.84
2022-10-19T06:56:36.843Z,101484.94
2022-10-19T06:59:05.743Z,101483.00
2022-10-19T07:01:33.421Z,101477.06
2022-10-19T07:04:00.896Z,101472.06
2022-10-19T07:06:29.358Z,101464.84
2022-10-19T07:08:56.923Z,101463.75
2022-10-19T07:11:26.049Z,101460.72
2022-10-19T07:13:54.857Z,101451.69
2022-10-19T07:16:22.913Z,101455.56
2022-10-19T07:18:52.818Z,101454.91
2022-10-19T07:21:23.352Z,101455.38
2022-10-19T07:23:51.358Z,101446.31
2022-10-19T07:26:23.793Z,101439.22
2022-10-19T07:28:51.972Z,101436.47
2022-10-19T07:31:23.019Z,101430.69
2022-10-19T07:33:58.739Z,101426.50
2022-10-19T07:36:28.414Z,101427.13
2022-10-19T07:38:56.045Z,101424.50
2022-10-19T07:41:25.507Z,101422.09
2022-10-19T07:43:53.537Z,101423.13
2022-10-19T07:46:25.642Z,101413.75
2022-10-19T07:48:54.092Z,101413.31
2022-10-19T07:51:22.964Z,101418.91
2022-10-19T07:53:53.548Z,101415.44
2022-10-19T07:56:25.237Z,101407.47
2022-10-19T07:58:55.003Z,101405.06
2022-10-19T08:01:41.868Z,101405.94
2022-10-19T08:06:59.865Z,101403.22
2022-10-19T08:09:51.613Z,101396.09
2022-10-19T08:12:15.710Z,101388.75
2022-10-19T08:14:43.593Z,101387.53
2022-10-19T08:17:16.853Z,101382.28
2022-10-19T08:19:45.683Z,101380.03
2022-10-19T08:22:13.396Z,101371.13
2022-10-19T08:24:41.103Z,101376.19
2022-10-19T08:27:09.110Z,101378.50
2022-10-19T08:29:37.536Z,101368.78
2022-10-19T08:32:05.309Z,101354.75
2022-10-19T08:34:34.878Z,101357.84
2022-10-19T08:37:10.235Z,101357.38
2022-10-19T08:39:48.500Z,101349.03
2022-10-19T08:42:22.244Z,101343.22
2022-10-19T08:45:24.123Z,101346.69
2022-10-19T08:48:19.183Z,101333.56
2022-10-19T08:50:48.301Z,101340.97
2022-10-19T08:53:37.921Z,101333.84
2022-10-19T08:56:38.892Z,101333.16
2022-10-19T08:59:24.496Z,101326.56
2022-10-19T09:02:26.383Z,101318.00
2022-10-19T09:05:03.973Z,101301.91
2022-10-19T09:07:45.739Z,101311.44
2022-10-19T09:10:20.132Z,101312.66
2022-10-19T09:13:29.220Z,101309.88
2022-10-19T09:16:05.158Z,101300.25
2022-10-19T09:18:36.555Z,101298.16
2022-10-19T09:21:14.004Z,101288.47
2022-10-19T09:24:16.358Z,101292.81
2022-10-19T09:26:53.021Z,101283.28
2022-10-19T09:29:39.335Z,101271.47
2022-10-19T09:32:15.577Z,101272.94
2022-10-19T09:34:55.535Z,101269.22
2022-10-19T09:37:26.530Z,101277.28
2022-10-19T09:39:56.325Z,101260.47
2022-10-19T09:42:30.629Z,101252.41
2022-10-19T09:45:14.077Z,101260.16
2022-10-19T09:47:46.550Z,101258.03
2022-10-19T09:50:25.670Z,101249.09
2022-10-19T09:53:03.341Z,101253.47
2022-10-19T09:55:43.358Z,101244.28
2022-10-19T09:58:13.570Z,101222.94
2022-10-19T10:00:54.734Z,101231.50
2022-10-19T10:03:26.646Z,101227.47
2022-10-19T10:05:58.088Z,101229.41
2022-10-19T10:08:29.987Z,101227.34
2022-10-19T10:11:24.459Z,101216.16
2022-10-19T10:13:54.173Z,101217.44
2022-10-19T10:16:24.144Z,101212.88
2022-10-19T10:18:56.447Z,101213.06
2022-10-19T10:21:27.557Z,101206.47
2022-10-19T10:24:06.042Z,101199.84
2022-10-19T10:26:51.963Z,101196.69
2022-10-19T10:29:26.780Z,101193.88
2022-10-19T10:32:18.337Z,101199.16
2022-10-19T10:35:17.692Z,101193.19
2022-10-19T10:37:47.986Z,101187.22
2022-10-19T10:40:36.634Z,101181.84
2022-10-19T10:43:13.652Z,101179.38
2022-10-19T10:45:53.374Z,101173.72
2022-10-19T10:48:44.553Z,101162.78
2022-10-19T10:51:43.911Z,101171.41
2022-10-19T10:54:25.108Z,101164.75
2022-10-19T10:57:06.939Z,101162.94
2022-10-19T10:59:43.190Z,101150.06
2022-10-19T11:02:46.629Z,101145.34
2022-10-19T11:05:23.085Z,101130.81
2022-10-19T11:07:55.914Z,101134.72
2022-10-19T11:10:27.005Z,101130.16
2022-10-19T11:13:31.893Z,101121.81
2022-10-19T11:16:18.362Z,101115.63
2022-10-19T11:18:57.373Z,101106.97
2022-10-19T11:21:45.701Z,101110.00
2022-10-19T11:24:51.723Z,101105.72
2022-10-19T11:27:24.615Z,101103.66
2022-10-19T11:30:13.011Z,101103.16
2022-10-19T11:33:04.170Z,101096.66
2022-10-19T11:35:38.563Z,101097.78
2022-10-19T11:38:25.085Z,101094.00
2022-10-19T11:41:29.749Z,101091.31
2022-10-19T11:44:38.852Z,101095.94
2022-10-19T11:47:18.331Z,101089.69
2022-10-19T11:50:24.356Z,101078.31
2022-10-19T11:53:21.269Z,101073.13
2022-10-19T11:56:03.845Z,101088.06
2022-10-19T11:58:49.509Z,101075.59
2022-10-19T12:01:29.925Z,101084.00
2022-10-19T12:04:15.544Z,101086.69
2022-10-19T12:07:04.600Z,101070.13
2022-10-19T12:09:46.518Z,101068.53
2022-10-19T12:12:37.935Z,101069.84
2022-10-19T12:15:11.483Z,101071.22
2022-10-19T12:17:41.966Z,101055.75
2022-10-19T12:20:20.968Z,101061.97
2022-10-19T12:22:50.183Z,101052.50
2022-10-19T12:25:20.168Z,101051.63
2022-10-19T12:27:50.199Z,101044.84
2022-10-19T12:30:23.284Z,101027.50
2022-10-19T12:33:12.981Z,101038.59
2022-10-19T12:36:09.294Z,101010.44
2022-10-19T12:38:59.712Z,101028.56
2022-10-19T12:42:10.954Z,101005.53
2022-10-19T12:44:58.717Z,101010.94
2022-10-19T12:47:26.872Z,101008.75
2022-10-19T12:49:56.480Z,101007.94
2022-10-19T12:52:36.677Z,101009.81
2022-10-19T12:55:35.106Z,101015.47
2022-10-19T12:58:19.624Z,101010.00
2022-10-19T13:01:00.470Z,101009.72
2022-10-19T13:03:41.581Z,101006.19
2022-10-19T13:06:20.876Z,100995.06
2022-10-19T13:08:56.781Z,100980.88
2022-10-19T13:11:24.493Z,101009.34
2022-10-19T13:13:59.365Z,101000.38
2022-10-19T13:16:29.776Z,101003.91
2022-10-19T13:19:00.097Z,101003.34
2022-10-19T13:21:46.186Z,101003.91
2022-10-19T13:24:25.894Z,101000.59
2022-10-19T13:27:02.559Z,100991.34
2022-10-19T13:29:39.512Z,100994.56
2022-10-19T13:32:31.736Z,100989.66
2022-10-19T13:35:25.933Z,100990.09
2022-10-19T13:38:18.607Z,100983.50
2022-10-19T13:40:48.804Z,100976.69
2022-10-19T13:43:20.881Z,100978.00
2022-10-19T13:46:10.690Z,100972.22
2022-10-19T13:49:27.739Z,100971.00
2022-10-19T13:52:12.759Z,100956.25
2022-10-19T13:54:58.678Z,100971.06
2022-10-19T13:57:53.105Z,100958.81
2022-10-19T14:00:23.305Z,100965.22
2022-10-19T14:03:22.716Z,100953.28
2022-10-19T14:06:27.511Z,100951.63
2022-10-19T14:08:56.072Z,100948.75
2022-10-19T14:11:37.020Z,100947.00
2022-10-19T14:14:11.262Z,100946.88
2022-10-19T14:17:01.178Z,100937.00
2022-10-19T14:19:44.364Z,100942.53
2022-10-19T14:22:27.231Z,100948.16
2022-10-19T14:25:01.707Z,100945.16
2022-10-19T14:27:31.783Z,100936.69
2022-10-19T14:29:59.836Z,100939.66
2022-10-19T14:32:30.317Z,100942.34
2022-10-19T14:35:07.037Z,100940.38
2022-10-19T14:37:36.780Z,100948.38
2022-10-19T14:40:26.565Z,100949.38
2022-10-19T14:42:57.467Z,100944.19
2022-10-19T14:45:30.662Z,100949.72
2022-10-19T14:48:18.497Z,100947.47
2022-10-19T14:50:54.275Z,100953.03
2022-10-19T14:53:24.516Z,100954.81
2022-10-19T14:55:55.423Z,100964.47
2022-10-19T14:58:25.323Z,100960.88
2022-10-19T15:00:54.716Z,100964.31
2022-10-19T15:03:27.377Z,100956.13
2022-10-19T15:06:01.560Z,100953.84
2022-10-19T15:08:37.535Z,100952.19
2022-10-19T15:11:07.290Z,100946.16
2022-10-19T15:13:42.041Z,100953.72
2022-10-19T15:16:52.845Z,100954.47
2022-10-19T15:22:19.220Z,100952.00
2022-10-19T15:25:03.350Z,100948.03
2022-10-19T15:27:42.436Z,100944.50
2022-10-19T15:30:19.008Z,100948.75
2022-10-19T15:32:52.009Z,100941.88
2022-10-19T15:35:34.649Z,100947.91
2022-10-19T15:38:11.041Z,100947.16
2022-10-19T15:40:41.142Z,100942.41
2022-10-19T15:43:36.181Z,100944.09
2022-10-19T15:46:09.188Z,100938.16
2022-10-19T15:48:42.392Z,100943.34
2022-10-19T15:51:28.102Z,100948.50
2022-10-19T15:54:01.463Z,100947.47
2022-10-19T15:56:32.013Z,100943.50
2022-10-19T15:59:01.517Z,100933.69
2022-10-19T16:01:31.921Z,100937.91
2022-10-19T16:04:00.467Z,100941.28
2022-10-19T16:06:30.988Z,100947.38
2022-10-19T16:08:59.978Z,100933.72
2022-10-19T16:11:29.440Z,100940.72
2022-10-19T16:13:57.242Z,100939.09
2022-10-19T16:16:31.448Z,100934.19
2022-10-19T16:19:00.332Z,100935.69
2022-10-19T16:21:32.252Z,100927.31
2022-10-19T16:24:02.830Z,100922.63
2022-10-19T16:26:32.559Z,100931.97
2022-10-19T16:29:01.800Z,100920.31
2022-10-19T16:31:29.739Z,100915.28
2022-10-19T16:33:57.652Z,100909.56
2022-10-19T16:36:25.400Z,100905.91
2022-10-19T16:38:53.224Z,100900.22
2022-10-19T16:41:20.867Z,100904.63
2022-10-19T16:43:48.914Z,100902.66
2022-10-19T16:46:21.388Z,100894.69
2022-10-19T16:48:50.279Z,100894.00
2022-10-19T16:51:33.615Z,100893.31
2022-10-19T16:54:12.676Z,100881.50
2022-10-19T16:56:48.156Z,100885.53
2022-10-19T16:59:19.628Z,100872.66
2022-10-19T17:01:49.613Z,100870.53
2022-10-19T17:04:21.527Z,100869.59
2022-10-19T17:06:49.468Z,100879.72
2022-10-19T17:12:06.698Z,100873.06
2022-10-19T17:14:35.021Z,100868.75
2022-10-19T17:17:02.824Z,100872.00
2022-10-19T17:19:30.735Z,100867.53
2022-10-19T17:21:59.535Z,100878.53
2022-10-19T17:24:27.332Z,100872.78
2022-10-19T17:26:56.017Z,100873.81
2022-10-19T17:29:24.709Z,100875.69
2022-10-19T17:31:52.189Z,100870.56
2022-10-19T17:34:22.555Z,100868.91
2022-10-19T17:36:50.175Z,100876.34
2022-10-19T17:39:25.533Z,100863.78
2022-10-19T17:42:02.065Z,100865.63
2022-10-19T17:44:31.771Z,100849.88
2022-10-19T17:47:00.611Z,100852.22
2022-10-19T17:49:30.087Z,100860.69
2022-10-19T17:51:58.019Z,100855.41
2022-10-19T17:54:25.568Z,100847.84
2022-10-19T17:56:53.152Z,100848.28
2022-10-19T18:00:14.510Z,100850.34
2022-10-19T18:02:40.891Z,100846.03
2022-10-19T18:05:08.867Z,100849.41
2022-10-19T18:07:36.748Z,100851.72
2022-10-19T18:10:05.291Z,100854.00
2022-10-19T18:12:32.806Z,100847.50
2022-10-19T18:15:00.769Z,100846.06
2022-10-19T18:17:28.302Z,100845.94
2022-10-19T18:19:56.597Z,100834.03
2022-10-19T18:22:24.076Z,100847.84
2022-10-19T18:24:51.538Z,100844.81
2022-10-19T18:27:21.802Z,100845.84
2022-10-19T18:29:50.314Z,100842.81
2022-10-19T18:32:17.795Z,100849.84
2022-10-19T18:34:46.005Z,100841.75
2022-10-19T18:37:13.508Z,100844.44
2022-10-19T18:39:41.150Z,100853.47
2022-10-19T18:42:08.770Z,100854.94
2022-10-19T18:47:20.993Z,100846.81
2022-10-19T18:50:00.096Z,100843.19
2022-10-19T18:52:33.305Z,100841.97
2022-10-19T18:55:01.213Z,100838.34
2022-10-19T18:57:31.736Z,100832.41
2022-10-19T18:59:59.474Z,100831.84
2022-10-19T19:02:34.701Z,100838.06
2022-10-19T19:05:10.331Z,100838.25
2022-10-19T19:07:38.822Z,100825.34
2022-10-19T19:10:06.719Z,100837.69
2022-10-19T19:12:34.430Z,100828.25
2022-10-19T19:15:02.417Z,100833.41
2022-10-19T19:17:30.635Z,100823.00
2022-10-19T19:20:01.060Z,100822.16
2022-10-19T19:22:33.865Z,100822.03
2022-10-19T19:25:01.826Z,100814.03
2022-10-19T19:27:31.874Z,100815.34
2022-10-19T19:30:00.844Z,100819.53
2022-10-19T19:32:28.346Z,100805.81
2022-10-19T19:34:55.807Z,100805.28
2022-10-19T19:37:23.951Z,100808.00
2022-10-19T19:39:51.423Z,100812.16
2022-10-19T19:42:18.989Z,100812.38
2022-10-19T19:44:46.505Z,100813.25
2022-10-19T19:47:14.039Z,100805.84
2022-10-19T19:49:41.483Z,100812.00
2022-10-19T19:52:08.913Z,100802.16
2022-10-19T19:54:36.435Z,100816.75
2022-10-19T19:57:04.610Z,100800.94
2022-10-19T19:59:32.046Z,100804.44
2022-10-19T20:01:59.597Z,100798.47
2022-10-19T20:04:28.238Z,100801.34
2022-10-19T20:06:55.633Z,100784.75
2022-10-19T20:09:23.076Z,100786.19
2022-10-19T20:11:53.502Z,100786.19
2022-10-19T20:14:21.028Z,100780.88
2022-10-19T20:16:48.458Z,100776.56
2022-10-19T20:19:16.263Z,100781.69
2022-10-19T20:21:43.709Z,100766.50
2022-10-19T20:24:11.299Z,100770.19
2022-10-19T20:26:39.122Z,100768.13
2022-10-19T20:29:07.022Z,100761.16
2022-10-19T20:31:39.676Z,100753.56
2022-10-19T20:34:11.440Z,100750.47
2022-10-19T20:36:38.919Z,100752.13
2022-10-19T20:39:06.493Z,100743.28
2022-10-19T20:41:34.190Z,100743.50
2022-10-19T20:44:02.233Z,100747.19
2022-10-19T20:46:30.732Z,100739.59
2022-10-19T20:49:00.586Z,100744.38
2022-10-19T20:51:32.031Z,100751.34
2022-10-19T20:54:02.413Z,100740.72
2022-10-19T20:56:37.425Z,100744.22
2022-10-19T20:59:07.238Z,100740.34
2022-10-19T21:01:36.688Z,100741.19
2022-10-19T21:04:06.770Z,100732.19
2022-10-19T21:06:37.419Z,100746.53
2022-10-19T21:09:05.086Z,100735.09
2022-10-19T21:11:36.341Z,100738.81
2022-10-19T21:14:06.971Z,100719.13
2022-10-19T21:16:35.523Z,100727.34
2022-10-19T21:19:07.582Z,100726.94
2022-10-19T21:21:37.813Z,100716.06
2022-10-19T21:24:27.189Z,100711.78
2022-10-19T21:26:54.940Z,100716.94
2022-10-19T21:29:22.828Z,100709.56
2022-10-19T21:31:55.610Z,100705.66
2022-10-19T21:34:25.867Z,100703.22
2022-10-19T21:36:53.757Z,100699.13
2022-10-19T21:39:21.999Z,100706.72
2022-10-19T21:41:50.228Z,100700.75
2022-10-19T21:44:21.839Z,100705.69
2022-10-19T21:46:50.101Z,100708.97
2022-10-19T21:49:17.942Z,100707.28
2022-10-19T21:51:48.725Z,100707.50
2022-10-19T21:54:19.581Z,100712.56
2022-10-19T21:56:47.820Z,100708.91
2022-10-19T21:59:15.661Z,100710.50
2022-10-19T22:01:43.747Z,100710.31
2022-10-19T22:04:16.805Z,100698.03
2022-10-19T22:06:45.573Z,100708.88
2022-10-19T22:09:20.921Z,100692.91
2022-10-19T22:11:48.446Z,100695.56
2022-10-19T22:14:17.249Z,100691.06
2022-10-19T22:16:45.035Z,100686.56
2022-10-19T22:19:13.049Z,100685.53
2022-10-19T22:21:41.075Z,100690.88
2022-10-19T22:24:13.167Z,100686.56
2022-10-19T22:26:47.180Z,100680.81
2022-10-19T22:29:14.886Z,100665.06
2022-10-19T22:31:42.572Z,100683.91
2022-10-19T22:34:14.295Z,100677.75
2022-10-19T22:36:42.407Z,100683.09
2022-10-19T22:39:09.886Z,100681.44
2022-10-19T22:41:37.275Z,100677.13
2022-10-19T22:44:04.837Z,100672.00
2022-10-19T22:46:32.345Z,100681.44
2022-10-19T22:48:59.938Z,100656.44
2022-10-19T22:51:30.222Z,100665.47
2022-10-19T22:53:57.671Z,100657.69
2022-10-19T22:56:25.147Z,100665.09
2022-10-19T22:58:52.832Z,100660.59
2022-10-19T23:01:20.272Z,100646.22
2022-10-19T23:03:47.700Z,100654.00
2022-10-19T23:06:16.012Z,100643.81
2022-10-19T23:08:44.990Z,100645.00
2022-10-19T23:11:13.160Z,100654.03
2022-10-19T23:13:40.866Z,100655.06
2022-10-19T23:16:14.556Z,100652.41
2022-10-19T23:18:42.084Z,100651.16
2022-10-19T23:21:12.995Z,100646.22
2022-10-19T23:23:41.613Z,100654.63
2022-10-19T23:26:14.265Z,100653.19
2022-10-19T23:28:43.365Z,100640.28
2022-10-19T23:31:17.346Z,100646.84
2022-10-19T23:33:45.563Z,100641.75
2022-10-19T23:36:21.705Z,100639.28
2022-10-19T23:38:51.523Z,100629.84
2022-10-19T23:41:20.224Z,100630.44
2022-10-19T23:43:48.121Z,100627.19
2022-10-19T23:46:15.916Z,100622.28
2022-10-19T23:48:43.610Z,100627.78
2022-10-19T23:51:17.040Z,100625.94
2022-10-19T23:53:47.787Z,100629.22
2022-10-19T23:56:27.289Z,100630.63
2022-10-19T23:58:55.671Z,100634.75
